sensor_id;sensor_type;location;lat;lon;timestamp;P1;durP1;ratioP1;P2;durP2;ratioP2
9052;SDS011;4561;47.450;7.516;2023-12-04T00:00:51;4.37;;;3.93;;
9052;SDS011;4561;47.450;7.516;2023-12-04T00:04:12;4.73;;;4.10;;
9052;SDS011;4561;47.450;7.516;2023-12-04T00:07:37;4.17;;;3.77;;
9052;SDS011;4561;47.450;7.516;2023-12-04T00:10:57;3.67;;;3.30;;
9052;SDS011;4561;47.450;7.516;2023-12-04T00:14:18;5.93;;;5.33;;
9052;SDS011;4561;47.450;7.516;2023-12-04T00:17:38;11.43;;;9.63;;
9052;SDS011;4561;47.450;7.516;2023-12-04T00:20:59;10.57;;;9.47;;
9052;SDS011;4561;47.450;7.516;2023-12-04T00:24:24;10.50;;;9.40;;
9052;SDS011;4561;47.450;7.516;2023-12-04T00:27:47;7.03;;;5.50;;
9052;SDS011;4561;47.450;7.516;2023-12-04T00:31:12;5.37;;;4.77;;
9052;SDS011;4561;47.450;7.516;2023-12-04T00:34:32;6.70;;;6.00;;
9052;SDS011;4561;47.450;7.516;2023-12-04T00:37:56;7.10;;;6.40;;
9052;SDS011;4561;47.450;7.516;2023-12-04T00:41:16;7.17;;;6.47;;
9052;SDS011;4561;47.450;7.516;2023-12-04T00:44:41;7.90;;;6.80;;
9052;SDS011;4561;47.450;7.516;2023-12-04T00:48:02;9.03;;;7.67;;
9052;SDS011;4561;47.450;7.516;2023-12-04T00:51:25;7.00;;;6.30;;
9052;SDS011;4561;47.450;7.516;2023-12-04T00:54:46;6.63;;;5.77;;
9052;SDS011;4561;47.450;7.516;2023-12-04T00:58:08;7.37;;;6.60;;
9052;SDS011;4561;47.450;7.516;2023-12-04T01:01:29;6.53;;;5.83;;
9052;SDS011;4561;47.450;7.516;2023-12-04T01:04:49;7.87;;;6.60;;
9052;SDS011;4561;47.450;7.516;2023-12-04T01:08:10;7.03;;;6.30;;
9052;SDS011;4561;47.450;7.516;2023-12-04T01:11:30;8.57;;;6.80;;
9052;SDS011;4561;47.450;7.516;2023-12-04T01:14:52;7.87;;;6.80;;
9052;SDS011;4561;47.450;7.516;2023-12-04T01:18:16;7.43;;;6.33;;
9052;SDS011;4561;47.450;7.516;2023-12-04T01:21:36;8.10;;;7.03;;
9052;SDS011;4561;47.450;7.516;2023-12-04T01:24:59;6.33;;;5.57;;
9052;SDS011;4561;47.450;7.516;2023-12-04T01:28:20;8.07;;;6.87;;
9052;SDS011;4561;47.450;7.516;2023-12-04T01:31:42;6.67;;;5.97;;
9052;SDS011;4561;47.450;7.516;2023-12-04T01:35:03;7.03;;;5.90;;
9052;SDS011;4561;47.450;7.516;2023-12-04T01:38:23;7.47;;;6.73;;
9052;SDS011;4561;47.450;7.516;2023-12-04T01:41:44;7.23;;;6.40;;
9052;SDS011;4561;47.450;7.516;2023-12-04T01:45:07;7.67;;;6.87;;
9052;SDS011;4561;47.450;7.516;2023-12-04T01:48:28;8.07;;;7.27;;
9052;SDS011;4561;47.450;7.516;2023-12-04T01:51:51;8.60;;;7.33;;
9052;SDS011;4561;47.450;7.516;2023-12-04T01:55:12;8.23;;;7.07;;
9052;SDS011;4561;47.450;7.516;2023-12-04T01:58:32;7.47;;;6.60;;
9052;SDS011;4561;47.450;7.516;2023-12-04T02:01:53;10.17;;;8.60;;
9052;SDS011;4561;47.450;7.516;2023-12-04T02:05:14;9.07;;;8.17;;
9052;SDS011;4561;47.450;7.516;2023-12-04T02:08:37;8.37;;;6.90;;
9052;SDS011;4561;47.450;7.516;2023-12-04T02:11:59;5.63;;;5.13;;
9052;SDS011;4561;47.450;7.516;2023-12-04T02:15:20;7.37;;;6.30;;
9052;SDS011;4561;47.450;7.516;2023-12-04T02:18:43;8.63;;;7.37;;
9052;SDS011;4561;47.450;7.516;2023-12-04T02:22:03;7.53;;;6.77;;
9052;SDS011;4561;47.450;7.516;2023-12-04T02:25:23;7.83;;;6.60;;
9052;SDS011;4561;47.450;7.516;2023-12-04T02:28:48;7.83;;;7.03;;
9052;SDS011;4561;47.450;7.516;2023-12-04T02:32:19;6.93;;;6.23;;
9052;SDS011;4561;47.450;7.516;2023-12-04T02:35:40;5.50;;;5.00;;
9052;SDS011;4561;47.450;7.516;2023-12-04T02:39:01;3.93;;;3.03;;
9052;SDS011;4561;47.450;7.516;2023-12-04T02:42:22;4.77;;;4.37;;
9052;SDS011;4561;47.450;7.516;2023-12-04T02:45:44;3.07;;;2.77;;
9052;SDS011;4561;47.450;7.516;2023-12-04T02:49:05;3.23;;;2.93;;
9052;SDS011;4561;47.450;7.516;2023-12-04T02:52:25;3.10;;;2.80;;
9052;SDS011;4561;47.450;7.516;2023-12-04T02:55:46;3.17;;;2.87;;
9052;SDS011;4561;47.450;7.516;2023-12-04T02:59:08;2.80;;;2.60;;
9052;SDS011;4561;47.450;7.516;2023-12-04T03:02:29;3.20;;;2.90;;
9052;SDS011;4561;47.450;7.516;2023-12-04T03:05:54;5.43;;;4.93;;
9052;SDS011;4561;47.450;7.516;2023-12-04T03:09:14;6.43;;;5.73;;
9052;SDS011;4561;47.450;7.516;2023-12-04T03:12:37;7.57;;;5.90;;
9052;SDS011;4561;47.450;7.516;2023-12-04T03:15:57;4.90;;;4.50;;
9052;SDS011;4561;47.450;7.516;2023-12-04T03:19:20;3.43;;;3.13;;
9052;SDS011;4561;47.450;7.516;2023-12-04T03:22:41;3.33;;;3.03;;
9052;SDS011;4561;47.450;7.516;2023-12-04T03:26:01;3.57;;;3.23;;
9052;SDS011;4561;47.450;7.516;2023-12-04T03:29:21;4.43;;;3.47;;
9052;SDS011;4561;47.450;7.516;2023-12-04T03:32:42;3.83;;;3.00;;
9052;SDS011;4561;47.450;7.516;2023-12-04T03:36:04;3.73;;;3.23;;
9052;SDS011;4561;47.450;7.516;2023-12-04T03:39:29;4.43;;;4.03;;
9052;SDS011;4561;47.450;7.516;2023-12-04T03:42:52;4.87;;;4.17;;
9052;SDS011;4561;47.450;7.516;2023-12-04T03:46:12;4.10;;;3.63;;
9052;SDS011;4561;47.450;7.516;2023-12-04T03:49:32;5.13;;;4.63;;
9052;SDS011;4561;47.450;7.516;2023-12-04T03:52:53;5.10;;;4.17;;
9052;SDS011;4561;47.450;7.516;2023-12-04T03:56:13;4.20;;;3.80;;
9052;SDS011;4561;47.450;7.516;2023-12-04T03:59:33;4.80;;;4.13;;
9052;SDS011;4561;47.450;7.516;2023-12-04T04:02:54;5.50;;;4.70;;
9052;SDS011;4561;47.450;7.516;2023-12-04T04:06:19;7.60;;;5.40;;
9052;SDS011;4561;47.450;7.516;2023-12-04T04:09:42;7.13;;;6.20;;
9052;SDS011;4561;47.450;7.516;2023-12-04T04:13:02;5.33;;;4.83;;
9052;SDS011;4561;47.450;7.516;2023-12-04T04:16:23;5.97;;;5.37;;
9052;SDS011;4561;47.450;7.516;2023-12-04T04:19:45;5.77;;;4.80;;
9052;SDS011;4561;47.450;7.516;2023-12-04T04:23:05;6.63;;;5.43;;
9052;SDS011;4561;47.450;7.516;2023-12-04T04:26:26;5.63;;;4.97;;
9052;SDS011;4561;47.450;7.516;2023-12-04T04:29:48;4.97;;;4.50;;
9052;SDS011;4561;47.450;7.516;2023-12-04T04:33:09;5.37;;;4.87;;
9052;SDS011;4561;47.450;7.516;2023-12-04T04:36:31;7.87;;;6.73;;
9052;SDS011;4561;47.450;7.516;2023-12-04T04:39:52;7.67;;;6.93;;
9052;SDS011;4561;47.450;7.516;2023-12-04T04:43:12;7.07;;;6.37;;
9052;SDS011;4561;47.450;7.516;2023-12-04T04:46:35;7.10;;;6.50;;
9052;SDS011;4561;47.450;7.516;2023-12-04T04:49:55;8.00;;;5.97;;
9052;SDS011;4561;47.450;7.516;2023-12-04T04:53:15;9.63;;;6.00;;
9052;SDS011;4561;47.450;7.516;2023-12-04T04:56:38;8.33;;;7.33;;
9052;SDS011;4561;47.450;7.516;2023-12-04T05:00:03;7.37;;;6.67;;
9052;SDS011;4561;47.450;7.516;2023-12-04T05:03:24;9.93;;;8.87;;
9052;SDS011;4561;47.450;7.516;2023-12-04T05:06:44;8.00;;;7.13;;
9052;SDS011;4561;47.450;7.516;2023-12-04T05:10:07;7.27;;;6.57;;
9052;SDS011;4561;47.450;7.516;2023-12-04T05:13:29;8.00;;;7.20;;
9052;SDS011;4561;47.450;7.516;2023-12-04T05:16:50;7.23;;;6.27;;
9052;SDS011;4561;47.450;7.516;2023-12-04T05:20:12;8.00;;;7.20;;
9052;SDS011;4561;47.450;7.516;2023-12-04T05:23:33;6.37;;;5.77;;
9052;SDS011;4561;47.450;7.516;2023-12-04T05:26:53;6.23;;;5.63;;
9052;SDS011;4561;47.450;7.516;2023-12-04T05:30:13;7.63;;;5.70;;
9052;SDS011;4561;47.450;7.516;2023-12-04T05:33:34;7.67;;;6.57;;
9052;SDS011;4561;47.450;7.516;2023-12-04T05:36:54;7.50;;;5.73;;
9052;SDS011;4561;47.450;7.516;2023-12-04T05:40:15;13.97;;;8.30;;
9052;SDS011;4561;47.450;7.516;2023-12-04T05:43:35;6.40;;;4.87;;
9052;SDS011;4561;47.450;7.516;2023-12-04T05:46:56;8.60;;;7.70;;
9052;SDS011;4561;47.450;7.516;2023-12-04T05:50:21;6.60;;;5.77;;
9052;SDS011;4561;47.450;7.516;2023-12-04T05:53:41;4.80;;;4.23;;
9052;SDS011;4561;47.450;7.516;2023-12-04T05:57:06;7.80;;;6.87;;
9052;SDS011;4561;47.450;7.516;2023-12-04T06:00:26;8.23;;;7.10;;
9052;SDS011;4561;47.450;7.516;2023-12-04T06:03:47;8.00;;;7.20;;
9052;SDS011;4561;47.450;7.516;2023-12-04T06:07:09;7.90;;;6.80;;
9052;SDS011;4561;47.450;7.516;2023-12-04T06:10:32;7.80;;;7.00;;
9052;SDS011;4561;47.450;7.516;2023-12-04T06:13:54;6.07;;;5.50;;
9052;SDS011;4561;47.450;7.516;2023-12-04T06:17:16;6.50;;;5.83;;
9052;SDS011;4561;47.450;7.516;2023-12-04T06:20:38;9.97;;;7.63;;
9052;SDS011;4561;47.450;7.516;2023-12-04T06:23:59;11.20;;;9.17;;
9052;SDS011;4561;47.450;7.516;2023-12-04T06:27:21;8.30;;;7.27;;
9052;SDS011;4561;47.450;7.516;2023-12-04T06:30:42;7.30;;;6.60;;
9052;SDS011;4561;47.450;7.516;2023-12-04T06:34:03;6.57;;;5.67;;
9052;SDS011;4561;47.450;7.516;2023-12-04T06:37:23;10.40;;;9.30;;
9052;SDS011;4561;47.450;7.516;2023-12-04T06:40:44;9.90;;;8.90;;
9052;SDS011;4561;47.450;7.516;2023-12-04T06:44:07;8.20;;;7.40;;
9052;SDS011;4561;47.450;7.516;2023-12-04T06:47:28;8.70;;;7.40;;
9052;SDS011;4561;47.450;7.516;2023-12-04T06:50:51;8.50;;;7.43;;
9052;SDS011;4561;47.450;7.516;2023-12-04T06:54:14;7.37;;;6.00;;
9052;SDS011;4561;47.450;7.516;2023-12-04T06:57:35;5.37;;;4.87;;
9052;SDS011;4561;47.450;7.516;2023-12-04T07:00:55;5.73;;;3.97;;
9052;SDS011;4561;47.450;7.516;2023-12-04T07:04:18;4.87;;;3.93;;
9052;SDS011;4561;47.450;7.516;2023-12-04T07:07:41;4.13;;;3.73;;
9052;SDS011;4561;47.450;7.516;2023-12-04T07:11:02;3.40;;;3.10;;
9052;SDS011;4561;47.450;7.516;2023-12-04T07:14:22;3.57;;;2.83;;
9052;SDS011;4561;47.450;7.516;2023-12-04T07:17:45;3.50;;;3.07;;
9052;SDS011;4561;47.450;7.516;2023-12-04T07:21:08;3.03;;;2.83;;
9052;SDS011;4561;47.450;7.516;2023-12-04T07:24:30;3.67;;;3.17;;
9052;SDS011;4561;47.450;7.516;2023-12-04T07:27:53;3.97;;;3.00;;
9052;SDS011;4561;47.450;7.516;2023-12-04T07:31:17;3.67;;;3.20;;
9052;SDS011;4561;47.450;7.516;2023-12-04T07:34:38;8.50;;;7.10;;
9052;SDS011;4561;47.450;7.516;2023-12-04T07:37:58;8.03;;;6.50;;
9052;SDS011;4561;47.450;7.516;2023-12-04T07:41:19;15.00;;;10.00;;
9052;SDS011;4561;47.450;7.516;2023-12-04T07:44:44;10.80;;;9.30;;
9052;SDS011;4561;47.450;7.516;2023-12-04T07:48:07;14.40;;;11.90;;
9052;SDS011;4561;47.450;7.516;2023-12-04T07:51:27;12.37;;;9.50;;
9052;SDS011;4561;47.450;7.516;2023-12-04T07:54:48;8.57;;;7.00;;
9052;SDS011;4561;47.450;7.516;2023-12-04T07:58:11;7.67;;;6.77;;
9052;SDS011;4561;47.450;7.516;2023-12-04T08:01:31;6.60;;;5.90;;
9052;SDS011;4561;47.450;7.516;2023-12-04T08:04:54;4.73;;;4.30;;
9052;SDS011;4561;47.450;7.516;2023-12-04T08:08:15;11.63;;;9.63;;
9052;SDS011;4561;47.450;7.516;2023-12-04T08:11:35;12.17;;;9.27;;
9052;SDS011;4561;47.450;7.516;2023-12-04T08:14:59;10.50;;;8.23;;
9052;SDS011;4561;47.450;7.516;2023-12-04T08:18:22;9.07;;;7.43;;
9052;SDS011;4561;47.450;7.516;2023-12-04T08:21:45;13.57;;;10.37;;
9052;SDS011;4561;47.450;7.516;2023-12-04T08:25:06;12.53;;;11.23;;
9052;SDS011;4561;47.450;7.516;2023-12-04T08:28:27;10.83;;;9.13;;
9052;SDS011;4561;47.450;7.516;2023-12-04T08:31:48;7.13;;;5.93;;
9052;SDS011;4561;47.450;7.516;2023-12-04T08:35:08;7.10;;;6.07;;
9052;SDS011;4561;47.450;7.516;2023-12-04T08:38:33;6.80;;;6.10;;
9052;SDS011;4561;47.450;7.516;2023-12-04T08:41:54;9.20;;;7.37;;
9052;SDS011;4561;47.450;7.516;2023-12-04T08:45:14;11.90;;;9.60;;
9052;SDS011;4561;47.450;7.516;2023-12-04T08:48:37;6.33;;;5.57;;
9052;SDS011;4561;47.450;7.516;2023-12-04T08:52:00;5.07;;;4.57;;
9052;SDS011;4561;47.450;7.516;2023-12-04T08:55:25;13.47;;;11.63;;
9052;SDS011;4561;47.450;7.516;2023-12-04T08:58:48;10.53;;;9.00;;
9052;SDS011;4561;47.450;7.516;2023-12-04T09:02:10;10.97;;;9.73;;
9052;SDS011;4561;47.450;7.516;2023-12-04T09:05:31;4.43;;;4.03;;
9052;SDS011;4561;47.450;7.516;2023-12-04T09:08:54;4.97;;;4.47;;
9052;SDS011;4561;47.450;7.516;2023-12-04T09:12:14;4.77;;;4.13;;
9052;SDS011;4561;47.450;7.516;2023-12-04T09:15:34;4.77;;;4.17;;
9052;SDS011;4561;47.450;7.516;2023-12-04T09:18:57;8.53;;;7.10;;
9052;SDS011;4561;47.450;7.516;2023-12-04T09:22:19;9.93;;;7.80;;
9052;SDS011;4561;47.450;7.516;2023-12-04T09:25:42;10.23;;;8.30;;
9052;SDS011;4561;47.450;7.516;2023-12-04T09:29:05;8.73;;;7.40;;
9052;SDS011;4561;47.450;7.516;2023-12-04T09:32:28;10.37;;;6.40;;
9052;SDS011;4561;47.450;7.516;2023-12-04T09:35:51;6.97;;;5.90;;
9052;SDS011;4561;47.450;7.516;2023-12-04T09:39:14;4.50;;;3.70;;
9052;SDS011;4561;47.450;7.516;2023-12-04T09:42:34;2.77;;;2.07;;
9052;SDS011;4561;47.450;7.516;2023-12-04T09:45:55;5.70;;;4.97;;
9052;SDS011;4561;47.450;7.516;2023-12-04T09:49:18;12.23;;;8.70;;
9052;SDS011;4561;47.450;7.516;2023-12-04T09:52:38;7.83;;;6.60;;
9052;SDS011;4561;47.450;7.516;2023-12-04T09:56:02;4.63;;;3.37;;
9052;SDS011;4561;47.450;7.516;2023-12-04T09:59:25;2.60;;;2.17;;
9052;SDS011;4561;47.450;7.516;2023-12-04T10:02:50;2.30;;;2.10;;
9052;SDS011;4561;47.450;7.516;2023-12-04T10:06:15;2.03;;;1.83;;
9052;SDS011;4561;47.450;7.516;2023-12-04T10:09:41;3.13;;;1.70;;
9052;SDS011;4561;47.450;7.516;2023-12-04T10:13:04;1.90;;;1.80;;
9052;SDS011;4561;47.450;7.516;2023-12-04T10:16:34;2.83;;;2.00;;
9052;SDS011;4561;47.450;7.516;2023-12-04T10:20:03;2.27;;;2.07;;
9052;SDS011;4561;47.450;7.516;2023-12-04T10:23:42;1.70;;;1.60;;
9052;SDS011;4561;47.450;7.516;2023-12-04T10:27:07;4.40;;;1.87;;
9052;SDS011;4561;47.450;7.516;2023-12-04T10:30:30;2.20;;;1.50;;
9052;SDS011;4561;47.450;7.516;2023-12-04T10:33:51;1.43;;;1.33;;
9052;SDS011;4561;47.450;7.516;2023-12-04T10:37:11;1.67;;;1.53;;
9052;SDS011;4561;47.450;7.516;2023-12-04T10:40:38;1.90;;;1.70;;
9052;SDS011;4561;47.450;7.516;2023-12-04T10:44:00;1.67;;;1.57;;
9052;SDS011;4561;47.450;7.516;2023-12-04T10:47:21;2.20;;;2.00;;
9052;SDS011;4561;47.450;7.516;2023-12-04T10:50:42;2.30;;;2.10;;
9052;SDS011;4561;47.450;7.516;2023-12-04T10:54:04;1.60;;;1.50;;
9052;SDS011;4561;47.450;7.516;2023-12-04T10:57:26;5.30;;;1.70;;
9052;SDS011;4561;47.450;7.516;2023-12-04T11:00:50;2.07;;;1.87;;
9052;SDS011;4561;47.450;7.516;2023-12-04T11:04:18;1.97;;;1.57;;
9052;SDS011;4561;47.450;7.516;2023-12-04T11:07:42;2.10;;;1.37;;
9052;SDS011;4561;47.450;7.516;2023-12-04T11:11:05;2.00;;;1.10;;
9052;SDS011;4561;47.450;7.516;2023-12-04T11:14:34;2.27;;;1.50;;
9052;SDS011;4561;47.450;7.516;2023-12-04T11:18:00;2.10;;;1.67;;
9052;SDS011;4561;47.450;7.516;2023-12-04T11:21:23;1.97;;;1.40;;
9052;SDS011;4561;47.450;7.516;2023-12-04T11:24:44;1.70;;;1.43;;
9052;SDS011;4561;47.450;7.516;2023-12-04T11:28:10;2.87;;;1.50;;
9052;SDS011;4561;47.450;7.516;2023-12-04T11:31:31;5.17;;;1.50;;
9052;SDS011;4561;47.450;7.516;2023-12-04T11:34:53;1.37;;;1.20;;
9052;SDS011;4561;47.450;7.516;2023-12-04T11:38:17;1.43;;;1.10;;
9052;SDS011;4561;47.450;7.516;2023-12-04T11:41:38;1.17;;;1.07;;
9052;SDS011;4561;47.450;7.516;2023-12-04T11:45:03;2.07;;;1.63;;
9052;SDS011;4561;47.450;7.516;2023-12-04T11:48:24;4.40;;;1.70;;
9052;SDS011;4561;47.450;7.516;2023-12-04T11:51:45;3.80;;;1.43;;
9052;SDS011;4561;47.450;7.516;2023-12-04T11:55:07;1.43;;;1.33;;
9052;SDS011;4561;47.450;7.516;2023-12-04T11:58:27;1.40;;;1.00;;
9052;SDS011;4561;47.450;7.516;2023-12-04T12:01:50;2.37;;;1.80;;
9052;SDS011;4561;47.450;7.516;2023-12-04T12:05:13;2.10;;;1.90;;
9052;SDS011;4561;47.450;7.516;2023-12-04T12:08:34;12.87;;;7.23;;
9052;SDS011;4561;47.450;7.516;2023-12-04T12:11:55;4.83;;;3.77;;
9052;SDS011;4561;47.450;7.516;2023-12-04T12:15:17;5.03;;;3.97;;
9052;SDS011;4561;47.450;7.516;2023-12-04T12:18:40;3.50;;;2.90;;
9052;SDS011;4561;47.450;7.516;2023-12-04T12:22:01;2.17;;;1.90;;
9052;SDS011;4561;47.450;7.516;2023-12-04T12:25:21;3.00;;;2.43;;
9052;SDS011;4561;47.450;7.516;2023-12-04T12:28:42;2.10;;;1.83;;
9052;SDS011;4561;47.450;7.516;2023-12-04T12:32:05;1.87;;;1.67;;
9052;SDS011;4561;47.450;7.516;2023-12-04T12:35:28;1.50;;;1.33;;
9052;SDS011;4561;47.450;7.516;2023-12-04T12:38:50;16.70;;;10.37;;
9052;SDS011;4561;47.450;7.516;2023-12-04T12:42:11;9.43;;;4.60;;
9052;SDS011;4561;47.450;7.516;2023-12-04T12:45:38;3.07;;;1.63;;
9052;SDS011;4561;47.450;7.516;2023-12-04T12:49:02;2.00;;;1.77;;
9052;SDS011;4561;47.450;7.516;2023-12-04T12:52:27;1.47;;;1.37;;
9052;SDS011;4561;47.450;7.516;2023-12-04T12:55:48;1.87;;;1.40;;
9052;SDS011;4561;47.450;7.516;2023-12-04T12:59:13;2.03;;;1.50;;
9052;SDS011;4561;47.450;7.516;2023-12-04T13:02:34;1.20;;;1.10;;
9052;SDS011;4561;47.450;7.516;2023-12-04T13:05:57;2.77;;;1.47;;
9052;SDS011;4561;47.450;7.516;2023-12-04T13:09:18;1.90;;;1.77;;
9052;SDS011;4561;47.450;7.516;2023-12-04T13:12:39;1.60;;;1.50;;
9052;SDS011;4561;47.450;7.516;2023-12-04T13:16:02;3.47;;;2.53;;
9052;SDS011;4561;47.450;7.516;2023-12-04T13:19:26;1.97;;;1.87;;
9052;SDS011;4561;47.450;7.516;2023-12-04T13:22:46;2.37;;;2.17;;
9052;SDS011;4561;47.450;7.516;2023-12-04T13:26:07;1.70;;;1.60;;
9052;SDS011;4561;47.450;7.516;2023-12-04T13:29:30;2.17;;;1.57;;
9052;SDS011;4561;47.450;7.516;2023-12-04T13:32:51;1.53;;;1.43;;
9052;SDS011;4561;47.450;7.516;2023-12-04T13:36:11;1.17;;;1.07;;
9052;SDS011;4561;47.450;7.516;2023-12-04T13:39:34;1.27;;;1.17;;
9052;SDS011;4561;47.450;7.516;2023-12-04T13:43:11;1.43;;;1.20;;
9052;SDS011;4561;47.450;7.516;2023-12-04T13:46:52;1.47;;;1.37;;
9052;SDS011;4561;47.450;7.516;2023-12-04T13:50:12;2.77;;;1.23;;
9052;SDS011;4561;47.450;7.516;2023-12-04T13:53:33;1.10;;;1.00;;
9052;SDS011;4561;47.450;7.516;2023-12-04T13:56:54;1.00;;;0.90;;
9052;SDS011;4561;47.450;7.516;2023-12-04T14:00:21;2.13;;;1.70;;
9052;SDS011;4561;47.450;7.516;2023-12-04T14:03:42;1.20;;;1.10;;
9052;SDS011;4561;47.450;7.516;2023-12-04T14:07:03;1.40;;;1.07;;
9052;SDS011;4561;47.450;7.516;2023-12-04T14:10:24;3.57;;;1.90;;
9052;SDS011;4561;47.450;7.516;2023-12-04T14:13:46;1.90;;;1.57;;
9052;SDS011;4561;47.450;7.516;2023-12-04T14:17:06;2.13;;;1.80;;
9052;SDS011;4561;47.450;7.516;2023-12-04T14:20:30;3.30;;;2.20;;
9052;SDS011;4561;47.450;7.516;2023-12-04T14:23:52;2.80;;;2.10;;
9052;SDS011;4561;47.450;7.516;2023-12-04T14:27:20;2.30;;;1.77;;
9052;SDS011;4561;47.450;7.516;2023-12-04T14:30:40;1.60;;;1.50;;
9052;SDS011;4561;47.450;7.516;2023-12-04T14:34:01;5.27;;;1.90;;
9052;SDS011;4561;47.450;7.516;2023-12-04T14:37:25;2.97;;;2.47;;
9052;SDS011;4561;47.450;7.516;2023-12-04T14:40:48;1.97;;;1.87;;
9052;SDS011;4561;47.450;7.516;2023-12-04T14:44:13;2.13;;;1.93;;
9052;SDS011;4561;47.450;7.516;2023-12-04T14:47:35;1.73;;;1.63;;
9052;SDS011;4561;47.450;7.516;2023-12-04T14:50:56;2.50;;;2.07;;
9052;SDS011;4561;47.450;7.516;2023-12-04T14:54:17;13.83;;;12.43;;
9052;SDS011;4561;47.450;7.516;2023-12-04T14:57:56;4.30;;;3.53;;
9052;SDS011;4561;47.450;7.516;2023-12-04T15:01:22;5.03;;;3.13;;
9052;SDS011;4561;47.450;7.516;2023-12-04T15:05:00;2.53;;;2.20;;
9052;SDS011;4561;47.450;7.516;2023-12-04T15:08:25;2.00;;;1.70;;
9052;SDS011;4561;47.450;7.516;2023-12-04T15:11:50;3.63;;;2.03;;
9052;SDS011;4561;47.450;7.516;2023-12-04T15:15:25;1.63;;;1.53;;
9052;SDS011;4561;47.450;7.516;2023-12-04T15:18:54;1.30;;;1.20;;
9052;SDS011;4561;47.450;7.516;2023-12-04T15:22:14;1.67;;;1.40;;
9052;SDS011;4561;47.450;7.516;2023-12-04T15:25:37;1.30;;;1.20;;
9052;SDS011;4561;47.450;7.516;2023-12-04T15:29:00;1.40;;;1.17;;
9052;SDS011;4561;47.450;7.516;2023-12-04T15:32:24;1.27;;;0.87;;
9052;SDS011;4561;47.450;7.516;2023-12-04T15:35:44;0.50;;;0.50;;
9052;SDS011;4561;47.450;7.516;2023-12-04T15:39:05;0.70;;;0.70;;
9052;SDS011;4561;47.450;7.516;2023-12-04T15:42:29;1.03;;;0.90;;
9052;SDS011;4561;47.450;7.516;2023-12-04T15:45:52;0.87;;;0.77;;
9052;SDS011;4561;47.450;7.516;2023-12-04T15:49:13;0.80;;;0.80;;
9052;SDS011;4561;47.450;7.516;2023-12-04T15:52:33;2.30;;;1.07;;
9052;SDS011;4561;47.450;7.516;2023-12-04T15:56:00;4.10;;;3.60;;
9052;SDS011;4561;47.450;7.516;2023-12-04T15:59:25;4.13;;;2.70;;
9052;SDS011;4561;47.450;7.516;2023-12-04T16:02:45;2.57;;;2.37;;
9052;SDS011;4561;47.450;7.516;2023-12-04T16:06:05;2.00;;;1.53;;
9052;SDS011;4561;47.450;7.516;2023-12-04T16:09:29;1.20;;;1.10;;
9052;SDS011;4561;47.450;7.516;2023-12-04T16:12:51;1.60;;;1.50;;
9052;SDS011;4561;47.450;7.516;2023-12-04T16:16:13;1.40;;;1.30;;
9052;SDS011;4561;47.450;7.516;2023-12-04T16:19:34;1.10;;;1.00;;
9052;SDS011;4561;47.450;7.516;2023-12-04T16:22:57;2.90;;;2.50;;
9052;SDS011;4561;47.450;7.516;2023-12-04T16:26:19;2.03;;;1.33;;
9052;SDS011;4561;47.450;7.516;2023-12-04T16:29:40;1.50;;;1.40;;
9052;SDS011;4561;47.450;7.516;2023-12-04T16:33:00;1.60;;;0.97;;
9052;SDS011;4561;47.450;7.516;2023-12-04T16:36:20;1.10;;;1.00;;
9052;SDS011;4561;47.450;7.516;2023-12-04T16:39:43;1.10;;;1.00;;
9052;SDS011;4561;47.450;7.516;2023-12-04T16:43:04;1.93;;;1.30;;
9052;SDS011;4561;47.450;7.516;2023-12-04T16:46:24;1.00;;;0.90;;
9052;SDS011;4561;47.450;7.516;2023-12-04T16:49:44;0.80;;;0.80;;
9052;SDS011;4561;47.450;7.516;2023-12-04T16:53:06;0.90;;;0.90;;
9052;SDS011;4561;47.450;7.516;2023-12-04T16:56:31;1.07;;;0.97;;
9052;SDS011;4561;47.450;7.516;2023-12-04T16:59:51;0.80;;;0.80;;
9052;SDS011;4561;47.450;7.516;2023-12-04T17:03:14;1.10;;;1.00;;
9052;SDS011;4561;47.450;7.516;2023-12-04T17:06:34;1.20;;;1.10;;
9052;SDS011;4561;47.450;7.516;2023-12-04T17:09:57;0.90;;;0.90;;
9052;SDS011;4561;47.450;7.516;2023-12-04T17:13:18;1.43;;;1.27;;
9052;SDS011;4561;47.450;7.516;2023-12-04T17:16:41;1.00;;;1.00;;
9052;SDS011;4561;47.450;7.516;2023-12-04T17:20:01;0.90;;;0.90;;
9052;SDS011;4561;47.450;7.516;2023-12-04T17:23:26;6.50;;;1.00;;
9052;SDS011;4561;47.450;7.516;2023-12-04T17:26:47;1.40;;;1.30;;
9052;SDS011;4561;47.450;7.516;2023-12-04T17:30:08;0.70;;;0.70;;
9052;SDS011;4561;47.450;7.516;2023-12-04T17:33:31;2.23;;;2.00;;
9052;SDS011;4561;47.450;7.516;2023-12-04T17:36:54;0.90;;;0.90;;
9052;SDS011;4561;47.450;7.516;2023-12-04T17:40:14;1.23;;;1.13;;
9052;SDS011;4561;47.450;7.516;2023-12-04T17:43:35;0.97;;;0.87;;
9052;SDS011;4561;47.450;7.516;2023-12-04T17:46:57;0.90;;;0.90;;
9052;SDS011;4561;47.450;7.516;2023-12-04T17:50:17;1.20;;;0.70;;
9052;SDS011;4561;47.450;7.516;2023-12-04T17:53:40;0.50;;;0.50;;
9052;SDS011;4561;47.450;7.516;2023-12-04T17:57:03;0.73;;;0.73;;
9052;SDS011;4561;47.450;7.516;2023-12-04T18:00:23;0.80;;;0.80;;
9052;SDS011;4561;47.450;7.516;2023-12-04T18:03:44;0.67;;;0.60;;
9052;SDS011;4561;47.450;7.516;2023-12-04T18:07:04;1.50;;;1.23;;
9052;SDS011;4561;47.450;7.516;2023-12-04T18:10:25;1.97;;;1.30;;
9052;SDS011;4561;47.450;7.516;2023-12-04T18:13:46;1.50;;;1.40;;
9052;SDS011;4561;47.450;7.516;2023-12-04T18:17:06;3.20;;;2.70;;
9052;SDS011;4561;47.450;7.516;2023-12-04T18:20:28;4.20;;;3.53;;
9052;SDS011;4561;47.450;7.516;2023-12-04T18:23:48;6.27;;;4.70;;
9052;SDS011;4561;47.450;7.516;2023-12-04T18:27:09;1.67;;;1.57;;
9052;SDS011;4561;47.450;7.516;2023-12-04T18:30:33;0.80;;;0.70;;
9052;SDS011;4561;47.450;7.516;2023-12-04T18:33:57;0.80;;;0.80;;
9052;SDS011;4561;47.450;7.516;2023-12-04T18:40:50;0.97;;;0.90;;
9052;SDS011;4561;47.450;7.516;2023-12-04T18:44:10;1.27;;;1.17;;
9052;SDS011;4561;47.450;7.516;2023-12-04T18:47:35;0.87;;;0.87;;
9052;SDS011;4561;47.450;7.516;2023-12-04T18:50:56;1.20;;;1.10;;
9052;SDS011;4561;47.450;7.516;2023-12-04T18:54:17;2.00;;;1.80;;
9052;SDS011;4561;47.450;7.516;2023-12-04T18:57:37;3.43;;;2.43;;
9052;SDS011;4561;47.450;7.516;2023-12-04T19:00:57;6.83;;;4.10;;
9052;SDS011;4561;47.450;7.516;2023-12-04T19:04:18;5.47;;;3.40;;
9052;SDS011;4561;47.450;7.516;2023-12-04T19:07:40;1.23;;;1.13;;
9052;SDS011;4561;47.450;7.516;2023-12-04T19:11:02;0.60;;;0.60;;
9052;SDS011;4561;47.450;7.516;2023-12-04T19:14:25;0.70;;;0.70;;
9052;SDS011;4561;47.450;7.516;2023-12-04T19:17:45;0.87;;;0.70;;
9052;SDS011;4561;47.450;7.516;2023-12-04T19:21:09;0.87;;;0.80;;
9052;SDS011;4561;47.450;7.516;2023-12-04T19:24:29;2.63;;;1.73;;
9052;SDS011;4561;47.450;7.516;2023-12-04T19:27:54;2.43;;;1.73;;
9052;SDS011;4561;47.450;7.516;2023-12-04T19:31:17;0.60;;;0.60;;
9052;SDS011;4561;47.450;7.516;2023-12-04T19:34:37;2.33;;;1.70;;
9052;SDS011;4561;47.450;7.516;2023-12-04T19:38:01;0.90;;;0.90;;
9052;SDS011;4561;47.450;7.516;2023-12-04T19:41:33;0.50;;;0.50;;
9052;SDS011;4561;47.450;7.516;2023-12-04T19:44:53;0.50;;;0.50;;
9052;SDS011;4561;47.450;7.516;2023-12-04T19:48:16;1.33;;;0.80;;
9052;SDS011;4561;47.450;7.516;2023-12-04T19:51:41;0.93;;;0.83;;
9052;SDS011;4561;47.450;7.516;2023-12-04T19:55:07;0.63;;;0.63;;
9052;SDS011;4561;47.450;7.516;2023-12-04T19:58:28;1.63;;;1.33;;
9052;SDS011;4561;47.450;7.516;2023-12-04T20:01:49;1.33;;;0.80;;
9052;SDS011;4561;47.450;7.516;2023-12-04T20:05:09;0.50;;;0.50;;
9052;SDS011;4561;47.450;7.516;2023-12-04T20:08:32;0.50;;;0.50;;
9052;SDS011;4561;47.450;7.516;2023-12-04T20:11:52;0.40;;;0.40;;
9052;SDS011;4561;47.450;7.516;2023-12-04T20:15:13;0.50;;;0.50;;
9052;SDS011;4561;47.450;7.516;2023-12-04T20:18:34;0.67;;;0.63;;
9052;SDS011;4561;47.450;7.516;2023-12-04T20:21:55;0.40;;;0.40;;
9052;SDS011;4561;47.450;7.516;2023-12-04T20:25:15;0.70;;;0.53;;
9052;SDS011;4561;47.450;7.516;2023-12-04T20:28:36;0.53;;;0.53;;
9052;SDS011;4561;47.450;7.516;2023-12-04T20:31:57;2.40;;;1.90;;
9052;SDS011;4561;47.450;7.516;2023-12-04T20:35:19;0.73;;;0.60;;
9052;SDS011;4561;47.450;7.516;2023-12-04T20:38:39;0.33;;;0.33;;
9052;SDS011;4561;47.450;7.516;2023-12-04T20:42:00;0.80;;;0.40;;
9052;SDS011;4561;47.450;7.516;2023-12-04T20:45:24;0.50;;;0.50;;
9052;SDS011;4561;47.450;7.516;2023-12-04T20:48:46;0.50;;;0.50;;
9052;SDS011;4561;47.450;7.516;2023-12-04T20:52:10;0.73;;;0.67;;
9052;SDS011;4561;47.450;7.516;2023-12-04T20:55:34;0.50;;;0.50;;
9052;SDS011;4561;47.450;7.516;2023-12-04T20:59:00;0.50;;;0.40;;